Terminal Aerodrome Forecast
Issued by NWS Sterling, VA

Current Version | Previous Version | Graphics & Text | Print | Product List | Glossary On
Versions: 1 2 3 4 5 6 7 8 9 10 11 12 13 14 15 16 17 18 19 20 21 22 23 24 25 26 27 28 29 30
992
FTUS41 KLWX 240536
TAFIAD
TAF
KIAD 240536Z 2406/2512 VRB03KT 6SM BR VCSH SCT015 BKN060
      TEMPO 2406/2409 BKN015
     FM240900 VRB03KT 3SM BR FEW002 BKN060 BKN250
     FM241200 29006KT P6SM BKN050
     FM250500 34006KT P6SM SCT050=

USA.gov is the U.S. government's official web portal to all federal, state and local government web resources and services.